sensor_id;sensor_type;location;lat;lon;timestamp;temperature;humidity
1391;DHT22;690;51.454;7.194;2023-01-08T00:00:45;12.90;1.00
1391;DHT22;690;51.454;7.194;2023-01-08T00:03:12;12.90;1.00
1391;DHT22;690;51.454;7.194;2023-01-08T00:05:39;12.80;1.00
1391;DHT22;690;51.454;7.194;2023-01-08T00:08:06;12.80;1.00
1391;DHT22;690;51.454;7.194;2023-01-08T00:10:34;12.90;1.00
1391;DHT22;690;51.454;7.194;2023-01-08T00:13:01;12.90;1.00
1391;DHT22;690;51.454;7.194;2023-01-08T00:15:29;12.90;1.00
1391;DHT22;690;51.454;7.194;2023-01-08T00:17:56;12.90;1.00
1391;DHT22;690;51.454;7.194;2023-01-08T00:20:23;12.90;1.00
1391;DHT22;690;51.454;7.194;2023-01-08T00:22:51;12.90;1.00
1391;DHT22;690;51.454;7.194;2023-01-08T00:25:18;12.90;1.00
1391;DHT22;690;51.454;7.194;2023-01-08T00:27:45;12.90;1.00
1391;DHT22;690;51.454;7.194;2023-01-08T00:30:13;12.80;1.00
1391;DHT22;690;51.454;7.194;2023-01-08T00:32:41;12.80;1.00
1391;DHT22;690;51.454;7.194;2023-01-08T00:35:08;12.90;1.00
1391;DHT22;690;51.454;7.194;2023-01-08T00:37:35;12.90;1.00
1391;DHT22;690;51.454;7.194;2023-01-08T00:40:02;12.90;1.00
1391;DHT22;690;51.454;7.194;2023-01-08T00:42:29;12.90;1.00
1391;DHT22;690;51.454;7.194;2023-01-08T00:44:56;12.90;1.00
1391;DHT22;690;51.454;7.194;2023-01-08T00:47:22;12.90;1.00
1391;DHT22;690;51.454;7.194;2023-01-08T00:49:51;12.90;1.00
1391;DHT22;690;51.454;7.194;2023-01-08T00:52:17;12.90;1.00
1391;DHT22;690;51.454;7.194;2023-01-08T00:54:44;12.90;1.00
1391;DHT22;690;51.454;7.194;2023-01-08T00:57:11;12.90;1.00
1391;DHT22;690;51.454;7.194;2023-01-08T00:59:38;12.90;1.00
1391;DHT22;690;51.454;7.194;2023-01-08T01:02:05;12.90;1.00
1391;DHT22;690;51.454;7.194;2023-01-08T01:04:32;12.90;1.00
1391;DHT22;690;51.454;7.194;2023-01-08T01:07:00;12.90;1.00
1391;DHT22;690;51.454;7.194;2023-01-08T01:09:27;12.90;1.00
1391;DHT22;690;51.454;7.194;2023-01-08T01:11:54;12.90;1.00
1391;DHT22;690;51.454;7.194;2023-01-08T01:14:21;12.80;1.00
1391;DHT22;690;51.454;7.194;2023-01-08T01:16:48;12.90;1.00
1391;DHT22;690;51.454;7.194;2023-01-08T01:19:15;12.90;1.00
1391;DHT22;690;51.454;7.194;2023-01-08T01:21:42;12.90;1.00
1391;DHT22;690;51.454;7.194;2023-01-08T01:24:12;12.90;1.00
1391;DHT22;690;51.454;7.194;2023-01-08T01:26:40;12.90;1.00
1391;DHT22;690;51.454;7.194;2023-01-08T01:29:07;12.90;1.00
1391;DHT22;690;51.454;7.194;2023-01-08T01:31:34;12.90;1.00
1391;DHT22;690;51.454;7.194;2023-01-08T01:34:01;12.90;1.00
1391;DHT22;690;51.454;7.194;2023-01-08T01:36:28;12.90;1.00
1391;DHT22;690;51.454;7.194;2023-01-08T01:38:56;13.00;1.00
1391;DHT22;690;51.454;7.194;2023-01-08T01:41:27;12.90;1.00
1391;DHT22;690;51.454;7.194;2023-01-08T01:43:56;12.90;1.00
1391;DHT22;690;51.454;7.194;2023-01-08T01:46:33;12.90;1.00
1391;DHT22;690;51.454;7.194;2023-01-08T01:49:03;12.90;1.00
1391;DHT22;690;51.454;7.194;2023-01-08T01:51:32;12.90;1.00
1391;DHT22;690;51.454;7.194;2023-01-08T01:54:02;12.90;1.00
1391;DHT22;690;51.454;7.194;2023-01-08T01:56:31;12.90;1.00
1391;DHT22;690;51.454;7.194;2023-01-08T01:59:00;12.90;1.00
1391;DHT22;690;51.454;7.194;2023-01-08T02:01:27;13.00;1.00
1391;DHT22;690;51.454;7.194;2023-01-08T02:03:55;12.90;1.00
1391;DHT22;690;51.454;7.194;2023-01-08T02:06:32;13.00;1.00
1391;DHT22;690;51.454;7.194;2023-01-08T02:09:03;13.00;1.00
1391;DHT22;690;51.454;7.194;2023-01-08T02:11:43;12.90;1.00
1391;DHT22;690;51.454;7.194;2023-01-08T02:14:15;13.00;1.00
1391;DHT22;690;51.454;7.194;2023-01-08T02:16:49;12.90;1.00
1391;DHT22;690;51.454;7.194;2023-01-08T02:19:28;12.90;1.00
1391;DHT22;690;51.454;7.194;2023-01-08T02:22:10;12.90;1.00
1391;DHT22;690;51.454;7.194;2023-01-08T02:24:50;12.90;1.00
1391;DHT22;690;51.454;7.194;2023-01-08T02:27:22;12.90;1.00
1391;DHT22;690;51.454;7.194;2023-01-08T02:29:50;12.90;1.00
1391;DHT22;690;51.454;7.194;2023-01-08T02:32:22;12.90;1.00
1391;DHT22;690;51.454;7.194;2023-01-08T02:34:52;12.90;1.00
1391;DHT22;690;51.454;7.194;2023-01-08T02:37:19;12.90;1.00
1391;DHT22;690;51.454;7.194;2023-01-08T02:39:56;12.90;1.00
1391;DHT22;690;51.454;7.194;2023-01-08T02:42:33;12.90;1.00
1391;DHT22;690;51.454;7.194;2023-01-08T02:45:06;12.90;1.00
1391;DHT22;690;51.454;7.194;2023-01-08T02:47:40;12.80;1.00
1391;DHT22;690;51.454;7.194;2023-01-08T02:50:13;12.90;1.00
1391;DHT22;690;51.454;7.194;2023-01-08T02:52:46;12.80;1.00
1391;DHT22;690;51.454;7.194;2023-01-08T02:55:16;12.80;1.00
1391;DHT22;690;51.454;7.194;2023-01-08T02:57:46;12.80;1.00
1391;DHT22;690;51.454;7.194;2023-01-08T03:00:14;12.80;1.00
1391;DHT22;690;51.454;7.194;2023-01-08T03:02:42;12.80;1.00
1391;DHT22;690;51.454;7.194;2023-01-08T03:05:15;12.80;1.00
1391;DHT22;690;51.454;7.194;2023-01-08T03:07:44;12.80;1.00
1391;DHT22;690;51.454;7.194;2023-01-08T03:10:12;12.80;1.00
1391;DHT22;690;51.454;7.194;2023-01-08T03:12:48;12.80;1.00
1391;DHT22;690;51.454;7.194;2023-01-08T03:15:22;12.80;1.00
1391;DHT22;690;51.454;7.194;2023-01-08T03:17:52;12.80;1.00
1391;DHT22;690;51.454;7.194;2023-01-08T03:20:22;12.80;1.00
1391;DHT22;690;51.454;7.194;2023-01-08T03:22:54;12.80;1.00
1391;DHT22;690;51.454;7.194;2023-01-08T03:25:24;12.80;1.00
1391;DHT22;690;51.454;7.194;2023-01-08T03:27:56;12.80;1.00
1391;DHT22;690;51.454;7.194;2023-01-08T03:30:27;12.80;1.00
1391;DHT22;690;51.454;7.194;2023-01-08T03:32:57;12.80;1.00
1391;DHT22;690;51.454;7.194;2023-01-08T03:35:26;12.80;1.00
1391;DHT22;690;51.454;7.194;2023-01-08T03:38:02;12.80;1.00
1391;DHT22;690;51.454;7.194;2023-01-08T03:40:34;12.70;1.00
1391;DHT22;690;51.454;7.194;2023-01-08T03:43:03;12.70;1.00
1391;DHT22;690;51.454;7.194;2023-01-08T03:45:31;12.70;1.00
1391;DHT22;690;51.454;7.194;2023-01-08T03:47:59;12.70;1.00
1391;DHT22;690;51.454;7.194;2023-01-08T03:50:29;12.70;1.00
1391;DHT22;690;51.454;7.194;2023-01-08T03:52:57;12.70;1.00
1391;DHT22;690;51.454;7.194;2023-01-08T03:55:24;12.70;1.00
1391;DHT22;690;51.454;7.194;2023-01-08T03:57:51;12.70;1.00
1391;DHT22;690;51.454;7.194;2023-01-08T04:00:19;12.60;1.00
1391;DHT22;690;51.454;7.194;2023-01-08T04:02:46;12.60;1.00
1391;DHT22;690;51.454;7.194;2023-01-08T04:05:13;12.60;1.00
1391;DHT22;690;51.454;7.194;2023-01-08T04:07:40;12.60;1.00
1391;DHT22;690;51.454;7.194;2023-01-08T04:10:08;12.60;8.50
1391;DHT22;690;51.454;7.194;2023-01-08T04:12:35;12.60;22.00
1391;DHT22;690;51.454;7.194;2023-01-08T04:15:02;12.50;33.40
1391;DHT22;690;51.454;7.194;2023-01-08T04:17:30;12.50;42.20
1391;DHT22;690;51.454;7.194;2023-01-08T04:19:57;12.50;62.70
1391;DHT22;690;51.454;7.194;2023-01-08T04:22:24;12.50;74.10
1391;DHT22;690;51.454;7.194;2023-01-08T04:24:51;12.50;91.50
1391;DHT22;690;51.454;7.194;2023-01-08T04:27:18;12.50;99.90
1391;DHT22;690;51.454;7.194;2023-01-08T04:29:45;12.50;99.90
1391;DHT22;690;51.454;7.194;2023-01-08T04:32:12;12.50;99.90
1391;DHT22;690;51.454;7.194;2023-01-08T04:34:40;12.50;99.90
1391;DHT22;690;51.454;7.194;2023-01-08T04:37:07;12.50;99.90
1391;DHT22;690;51.454;7.194;2023-01-08T04:39:34;12.40;99.90
1391;DHT22;690;51.454;7.194;2023-01-08T04:42:01;12.50;99.90
1391;DHT22;690;51.454;7.194;2023-01-08T04:44:28;12.50;99.90
1391;DHT22;690;51.454;7.194;2023-01-08T04:46:55;12.50;99.90
1391;DHT22;690;51.454;7.194;2023-01-08T04:49:22;12.50;99.90
1391;DHT22;690;51.454;7.194;2023-01-08T04:51:51;12.50;99.90
1391;DHT22;690;51.454;7.194;2023-01-08T04:54:17;12.50;99.90
1391;DHT22;690;51.454;7.194;2023-01-08T04:56:44;12.50;99.90
1391;DHT22;690;51.454;7.194;2023-01-08T04:59:11;12.50;99.90
1391;DHT22;690;51.454;7.194;2023-01-08T05:01:38;12.50;99.90
1391;DHT22;690;51.454;7.194;2023-01-08T05:04:05;12.50;99.90
1391;DHT22;690;51.454;7.194;2023-01-08T05:06:32;12.50;99.90
1391;DHT22;690;51.454;7.194;2023-01-08T05:09:02;12.50;99.90
1391;DHT22;690;51.454;7.194;2023-01-08T05:11:29;12.50;99.90
1391;DHT22;690;51.454;7.194;2023-01-08T05:13:56;12.50;99.90
1391;DHT22;690;51.454;7.194;2023-01-08T05:16:23;12.40;99.90
1391;DHT22;690;51.454;7.194;2023-01-08T05:18:50;12.40;99.90
1391;DHT22;690;51.454;7.194;2023-01-08T05:21:17;12.40;99.90
1391;DHT22;690;51.454;7.194;2023-01-08T05:23:45;12.40;99.90
1391;DHT22;690;51.454;7.194;2023-01-08T05:26:15;12.40;99.90
1391;DHT22;690;51.454;7.194;2023-01-08T05:28:43;12.40;99.90
1391;DHT22;690;51.454;7.194;2023-01-08T05:31:11;12.30;99.90
1391;DHT22;690;51.454;7.194;2023-01-08T05:33:38;12.30;99.90
1391;DHT22;690;51.454;7.194;2023-01-08T05:36:06;12.30;99.90
1391;DHT22;690;51.454;7.194;2023-01-08T05:38:34;12.30;99.90
1391;DHT22;690;51.454;7.194;2023-01-08T05:41:01;12.30;99.90
1391;DHT22;690;51.454;7.194;2023-01-08T05:43:30;12.30;99.90
1391;DHT22;690;51.454;7.194;2023-01-08T05:45:57;12.40;99.90
1391;DHT22;690;51.454;7.194;2023-01-08T05:48:25;12.40;99.90
1391;DHT22;690;51.454;7.194;2023-01-08T05:50:52;12.40;99.90
1391;DHT22;690;51.454;7.194;2023-01-08T05:53:19;12.40;99.90
1391;DHT22;690;51.454;7.194;2023-01-08T05:55:46;12.40;99.90
1391;DHT22;690;51.454;7.194;2023-01-08T05:58:13;12.40;99.90
1391;DHT22;690;51.454;7.194;2023-01-08T06:00:45;12.40;99.90
1391;DHT22;690;51.454;7.194;2023-01-08T06:03:12;12.40;99.90
1391;DHT22;690;51.454;7.194;2023-01-08T06:05:39;12.40;99.90
1391;DHT22;690;51.454;7.194;2023-01-08T06:08:06;12.40;99.90
1391;DHT22;690;51.454;7.194;2023-01-08T06:10:33;12.40;99.90
1391;DHT22;690;51.454;7.194;2023-01-08T06:13:00;12.40;99.90
1391;DHT22;690;51.454;7.194;2023-01-08T06:15:27;12.40;99.90
1391;DHT22;690;51.454;7.194;2023-01-08T06:17:55;12.40;99.90
1391;DHT22;690;51.454;7.194;2023-01-08T06:20:22;12.40;99.90
1391;DHT22;690;51.454;7.194;2023-01-08T06:22:49;12.40;99.90
1391;DHT22;690;51.454;7.194;2023-01-08T06:25:19;12.40;99.90
1391;DHT22;690;51.454;7.194;2023-01-08T06:27:49;12.40;99.90
1391;DHT22;690;51.454;7.194;2023-01-08T06:30:16;12.40;99.90
1391;DHT22;690;51.454;7.194;2023-01-08T06:32:43;12.40;99.90
1391;DHT22;690;51.454;7.194;2023-01-08T06:35:12;12.40;99.90
1391;DHT22;690;51.454;7.194;2023-01-08T06:37:39;12.40;99.90
1391;DHT22;690;51.454;7.194;2023-01-08T06:40:07;12.50;99.90
1391;DHT22;690;51.454;7.194;2023-01-08T06:42:34;12.50;99.90
1391;DHT22;690;51.454;7.194;2023-01-08T06:45:01;12.50;99.90
1391;DHT22;690;51.454;7.194;2023-01-08T06:47:27;12.50;99.90
1391;DHT22;690;51.454;7.194;2023-01-08T06:49:55;12.50;99.90
1391;DHT22;690;51.454;7.194;2023-01-08T06:52:24;12.50;99.90
1391;DHT22;690;51.454;7.194;2023-01-08T06:54:51;12.50;99.90
1391;DHT22;690;51.454;7.194;2023-01-08T06:57:18;12.50;99.90
1391;DHT22;690;51.454;7.194;2023-01-08T06:59:45;12.50;99.90
1391;DHT22;690;51.454;7.194;2023-01-08T07:02:13;12.50;99.90
1391;DHT22;690;51.454;7.194;2023-01-08T07:04:40;12.50;99.90
1391;DHT22;690;51.454;7.194;2023-01-08T07:07:08;12.50;99.90
1391;DHT22;690;51.454;7.194;2023-01-08T07:09:38;12.50;99.90
1391;DHT22;690;51.454;7.194;2023-01-08T07:12:05;12.50;99.90
1391;DHT22;690;51.454;7.194;2023-01-08T07:14:33;12.50;99.90
1391;DHT22;690;51.454;7.194;2023-01-08T07:17:00;12.50;99.90
1391;DHT22;690;51.454;7.194;2023-01-08T07:19:27;12.50;99.90
1391;DHT22;690;51.454;7.194;2023-01-08T07:21:55;12.50;99.90
1391;DHT22;690;51.454;7.194;2023-01-08T07:24:22;12.60;94.80
1391;DHT22;690;51.454;7.194;2023-01-08T07:26:51;12.50;96.10
1391;DHT22;690;51.454;7.194;2023-01-08T07:29:17;12.40;91.30
1391;DHT22;690;51.454;7.194;2023-01-08T07:31:44;12.40;91.30
1391;DHT22;690;51.454;7.194;2023-01-08T07:34:11;12.20;88.60
1391;DHT22;690;51.454;7.194;2023-01-08T07:36:38;12.10;96.90
1391;DHT22;690;51.454;7.194;2023-01-08T07:39:05;12.00;94.00
1391;DHT22;690;51.454;7.194;2023-01-08T07:41:32;11.90;99.90
1391;DHT22;690;51.454;7.194;2023-01-08T07:44:01;11.70;99.90
1391;DHT22;690;51.454;7.194;2023-01-08T07:46:28;11.70;99.90
1391;DHT22;690;51.454;7.194;2023-01-08T07:48:55;11.60;99.90
1391;DHT22;690;51.454;7.194;2023-01-08T07:51:22;11.60;99.90
1391;DHT22;690;51.454;7.194;2023-01-08T07:53:49;11.50;99.90
1391;DHT22;690;51.454;7.194;2023-01-08T07:56:16;11.50;99.90
1391;DHT22;690;51.454;7.194;2023-01-08T07:58:43;11.60;99.90
1391;DHT22;690;51.454;7.194;2023-01-08T08:01:12;11.50;99.90
1391;DHT22;690;51.454;7.194;2023-01-08T08:03:40;11.50;99.90
1391;DHT22;690;51.454;7.194;2023-01-08T08:06:07;11.40;99.90
1391;DHT22;690;51.454;7.194;2023-01-08T08:08:35;11.40;99.90
1391;DHT22;690;51.454;7.194;2023-01-08T08:11:02;11.40;99.90
1391;DHT22;690;51.454;7.194;2023-01-08T08:13:29;11.30;99.90
1391;DHT22;690;51.454;7.194;2023-01-08T08:16:00;11.30;99.90
1391;DHT22;690;51.454;7.194;2023-01-08T08:18:29;11.30;99.90
1391;DHT22;690;51.454;7.194;2023-01-08T08:20:56;11.20;99.90
1391;DHT22;690;51.454;7.194;2023-01-08T08:23:23;11.20;99.90
1391;DHT22;690;51.454;7.194;2023-01-08T08:25:50;11.20;99.90
1391;DHT22;690;51.454;7.194;2023-01-08T08:28:17;11.20;99.90
1391;DHT22;690;51.454;7.194;2023-01-08T08:30:44;11.10;99.90
1391;DHT22;690;51.454;7.194;2023-01-08T08:33:12;11.20;99.90
1391;DHT22;690;51.454;7.194;2023-01-08T08:35:40;11.10;99.90
1391;DHT22;690;51.454;7.194;2023-01-08T08:38:13;11.10;99.90
1391;DHT22;690;51.454;7.194;2023-01-08T08:40:41;11.10;99.90
1391;DHT22;690;51.454;7.194;2023-01-08T08:43:08;11.10;99.90
1391;DHT22;690;51.454;7.194;2023-01-08T08:45:36;11.10;99.90
1391;DHT22;690;51.454;7.194;2023-01-08T08:48:05;11.10;99.90
1391;DHT22;690;51.454;7.194;2023-01-08T08:50:32;11.10;99.90
1391;DHT22;690;51.454;7.194;2023-01-08T08:53:01;11.10;99.90
1391;DHT22;690;51.454;7.194;2023-01-08T08:55:28;11.00;99.90
1391;DHT22;690;51.454;7.194;2023-01-08T08:58:01;11.00;99.90
1391;DHT22;690;51.454;7.194;2023-01-08T09:00:29;10.90;99.90
1391;DHT22;690;51.454;7.194;2023-01-08T09:02:56;10.90;99.90
1391;DHT22;690;51.454;7.194;2023-01-08T09:05:23;10.90;95.90
1391;DHT22;690;51.454;7.194;2023-01-08T09:07:50;10.90;84.00
1391;DHT22;690;51.454;7.194;2023-01-08T09:10:20;10.90;48.30
1391;DHT22;690;51.454;7.194;2023-01-08T09:12:48;10.90;21.70
1391;DHT22;690;51.454;7.194;2023-01-08T09:15:15;10.90;14.80
1391;DHT22;690;51.454;7.194;2023-01-08T09:17:42;10.90;13.90
1391;DHT22;690;51.454;7.194;2023-01-08T09:20:09;10.90;7.60
1391;DHT22;690;51.454;7.194;2023-01-08T09:22:36;10.90;3.30
1391;DHT22;690;51.454;7.194;2023-01-08T09:25:04;10.90;1.00
1391;DHT22;690;51.454;7.194;2023-01-08T09:27:32;10.90;1.00
1391;DHT22;690;51.454;7.194;2023-01-08T09:29:59;10.90;1.00
1391;DHT22;690;51.454;7.194;2023-01-08T09:32:26;10.90;1.00
1391;DHT22;690;51.454;7.194;2023-01-08T09:34:53;11.00;1.00
1391;DHT22;690;51.454;7.194;2023-01-08T09:37:20;11.10;1.00
1391;DHT22;690;51.454;7.194;2023-01-08T09:39:48;11.10;1.00
1391;DHT22;690;51.454;7.194;2023-01-08T09:42:15;11.20;1.00
1391;DHT22;690;51.454;7.194;2023-01-08T09:44:48;11.20;1.00
1391;DHT22;690;51.454;7.194;2023-01-08T09:47:23;11.20;1.00
1391;DHT22;690;51.454;7.194;2023-01-08T09:49:53;11.30;1.00
1391;DHT22;690;51.454;7.194;2023-01-08T09:52:21;11.30;1.00
1391;DHT22;690;51.454;7.194;2023-01-08T09:54:48;11.40;1.00
1391;DHT22;690;51.454;7.194;2023-01-08T09:57:16;11.40;1.00
1391;DHT22;690;51.454;7.194;2023-01-08T09:59:46;11.40;1.00
1391;DHT22;690;51.454;7.194;2023-01-08T10:02:15;11.50;1.00
1391;DHT22;690;51.454;7.194;2023-01-08T10:04:43;11.50;1.00
1391;DHT22;690;51.454;7.194;2023-01-08T10:07:13;11.60;1.00
1391;DHT22;690;51.454;7.194;2023-01-08T10:09:43;11.60;1.00
1391;DHT22;690;51.454;7.194;2023-01-08T10:12:10;11.60;1.00
1391;DHT22;690;51.454;7.194;2023-01-08T10:14:39;11.70;1.00
1391;DHT22;690;51.454;7.194;2023-01-08T10:17:19;11.70;1.00
1391;DHT22;690;51.454;7.194;2023-01-08T10:19:49;11.70;1.00
1391;DHT22;690;51.454;7.194;2023-01-08T10:22:18;11.80;1.00
1391;DHT22;690;51.454;7.194;2023-01-08T10:24:46;11.90;1.00
1391;DHT22;690;51.454;7.194;2023-01-08T10:27:14;11.90;1.00
1391;DHT22;690;51.454;7.194;2023-01-08T10:29:41;12.00;1.00
1391;DHT22;690;51.454;7.194;2023-01-08T10:32:15;12.00;1.00
1391;DHT22;690;51.454;7.194;2023-01-08T10:34:45;12.00;1.00
1391;DHT22;690;51.454;7.194;2023-01-08T10:37:21;12.10;1.00
1391;DHT22;690;51.454;7.194;2023-01-08T10:39:49;12.10;1.00
1391;DHT22;690;51.454;7.194;2023-01-08T10:42:18;12.20;1.00
1391;DHT22;690;51.454;7.194;2023-01-08T10:44:52;12.20;1.00
1391;DHT22;690;51.454;7.194;2023-01-08T10:47:21;12.30;1.00
1391;DHT22;690;51.454;7.194;2023-01-08T10:49:49;12.30;1.00
1391;DHT22;690;51.454;7.194;2023-01-08T10:52:27;12.40;1.00
1391;DHT22;690;51.454;7.194;2023-01-08T10:54:56;12.50;1.00
1391;DHT22;690;51.454;7.194;2023-01-08T10:57:26;12.60;1.00
1391;DHT22;690;51.454;7.194;2023-01-08T10:59:53;12.60;1.00
1391;DHT22;690;51.454;7.194;2023-01-08T11:02:29;12.70;1.00
1391;DHT22;690;51.454;7.194;2023-01-08T11:04:58;12.70;1.00
1391;DHT22;690;51.454;7.194;2023-01-08T11:07:26;12.80;1.00
1391;DHT22;690;51.454;7.194;2023-01-08T11:09:54;12.80;1.00
1391;DHT22;690;51.454;7.194;2023-01-08T11:12:31;12.90;1.00
1391;DHT22;690;51.454;7.194;2023-01-08T11:15:00;13.00;1.00
1391;DHT22;690;51.454;7.194;2023-01-08T11:17:29;13.00;1.00
1391;DHT22;690;51.454;7.194;2023-01-08T11:20:07;13.10;1.00
1391;DHT22;690;51.454;7.194;2023-01-08T11:22:34;13.10;1.00
1391;DHT22;690;51.454;7.194;2023-01-08T11:25:02;13.20;1.00
1391;DHT22;690;51.454;7.194;2023-01-08T11:27:30;13.30;1.00
1391;DHT22;690;51.454;7.194;2023-01-08T11:30:01;13.30;1.00
1391;DHT22;690;51.454;7.194;2023-01-08T11:32:41;13.40;1.00
1391;DHT22;690;51.454;7.194;2023-01-08T11:35:12;13.40;1.00
1391;DHT22;690;51.454;7.194;2023-01-08T11:37:48;13.40;1.00
1391;DHT22;690;51.454;7.194;2023-01-08T11:40:17;13.50;1.00
1391;DHT22;690;51.454;7.194;2023-01-08T11:42:58;13.60;1.00
1391;DHT22;690;51.454;7.194;2023-01-08T11:45:39;13.70;1.00
1391;DHT22;690;51.454;7.194;2023-01-08T11:48:27;13.70;1.00
1391;DHT22;690;51.454;7.194;2023-01-08T11:51:15;13.80;1.00
1391;DHT22;690;51.454;7.194;2023-01-08T11:53:49;13.90;1.00
1391;DHT22;690;51.454;7.194;2023-01-08T11:56:30;13.90;1.00
1391;DHT22;690;51.454;7.194;2023-01-08T11:59:07;13.90;1.00
1391;DHT22;690;51.454;7.194;2023-01-08T12:01:48;14.00;1.00
1391;DHT22;690;51.454;7.194;2023-01-08T12:04:40;14.00;1.00
1391;DHT22;690;51.454;7.194;2023-01-08T12:07:17;13.90;1.00
1391;DHT22;690;51.454;7.194;2023-01-08T12:09:47;13.90;1.00
1391;DHT22;690;51.454;7.194;2023-01-08T12:12:28;13.90;1.00
1391;DHT22;690;51.454;7.194;2023-01-08T12:15:06;13.90;1.00
1391;DHT22;690;51.454;7.194;2023-01-08T12:18:07;13.80;1.00
1391;DHT22;690;51.454;7.194;2023-01-08T12:20:47;13.80;1.00
1391;DHT22;690;51.454;7.194;2023-01-08T12:23:24;13.90;1.00
1391;DHT22;690;51.454;7.194;2023-01-08T12:26:17;14.00;1.00
1391;DHT22;690;51.454;7.194;2023-01-08T12:29:01;14.00;1.00
1391;DHT22;690;51.454;7.194;2023-01-08T12:34:36;14.00;1.00
1391;DHT22;690;51.454;7.194;2023-01-08T12:37:10;14.00;1.00
1391;DHT22;690;51.454;7.194;2023-01-08T12:39:45;14.00;1.00
1391;DHT22;690;51.454;7.194;2023-01-08T12:42:17;14.00;1.00
1391;DHT22;690;51.454;7.194;2023-01-08T12:44:51;14.00;1.00
1391;DHT22;690;51.454;7.194;2023-01-08T12:47:23;14.00;1.00
1391;DHT22;690;51.454;7.194;2023-01-08T12:50:04;13.90;1.00
1391;DHT22;690;51.454;7.194;2023-01-08T12:52:39;13.90;1.00
1391;DHT22;690;51.454;7.194;2023-01-08T12:55:19;13.60;1.00
1391;DHT22;690;51.454;7.194;2023-01-08T12:57:52;13.00;1.00
1391;DHT22;690;51.454;7.194;2023-01-08T13:00:28;12.50;1.00
1391;DHT22;690;51.454;7.194;2023-01-08T13:02:59;12.20;1.00
1391;DHT22;690;51.454;7.194;2023-01-08T13:05:32;11.90;1.00
1391;DHT22;690;51.454;7.194;2023-01-08T13:08:02;11.80;1.00
1391;DHT22;690;51.454;7.194;2023-01-08T13:10:35;11.70;1.00
1391;DHT22;690;51.454;7.194;2023-01-08T13:13:04;11.60;1.00
1391;DHT22;690;51.454;7.194;2023-01-08T13:15:32;11.60;1.00
1391;DHT22;690;51.454;7.194;2023-01-08T13:18:06;11.60;1.00
1391;DHT22;690;51.454;7.194;2023-01-08T13:20:34;11.60;1.00
1391;DHT22;690;51.454;7.194;2023-01-08T13:23:04;11.60;1.00
1391;DHT22;690;51.454;7.194;2023-01-08T13:25:33;11.70;1.00
1391;DHT22;690;51.454;7.194;2023-01-08T13:28:04;11.70;1.00
1391;DHT22;690;51.454;7.194;2023-01-08T13:30:42;11.70;1.00
1391;DHT22;690;51.454;7.194;2023-01-08T13:33:35;11.70;1.00
1391;DHT22;690;51.454;7.194;2023-01-08T13:36:20;11.70;1.00
1391;DHT22;690;51.454;7.194;2023-01-08T13:39:01;11.70;1.00
1391;DHT22;690;51.454;7.194;2023-01-08T13:41:29;11.70;1.00
1391;DHT22;690;51.454;7.194;2023-01-08T13:43:59;11.70;1.00
1391;DHT22;690;51.454;7.194;2023-01-08T13:46:29;11.70;34.00
1391;DHT22;690;51.454;7.194;2023-01-08T13:48:59;11.80;84.80
1391;DHT22;690;51.454;7.194;2023-01-08T13:51:38;11.80;97.00
1391;DHT22;690;51.454;7.194;2023-01-08T13:54:17;11.80;99.90
1391;DHT22;690;51.454;7.194;2023-01-08T13:56:46;11.90;99.90
1391;DHT22;690;51.454;7.194;2023-01-08T13:59:25;11.90;99.90
1391;DHT22;690;51.454;7.194;2023-01-08T14:01:56;12.00;99.90
1391;DHT22;690;51.454;7.194;2023-01-08T14:04:25;12.00;99.90
1391;DHT22;690;51.454;7.194;2023-01-08T14:06:52;12.00;72.50
1391;DHT22;690;51.454;7.194;2023-01-08T14:09:22;12.00;71.80
1391;DHT22;690;51.454;7.194;2023-01-08T14:11:52;12.10;65.30
1391;DHT22;690;51.454;7.194;2023-01-08T14:14:21;12.10;52.50
1391;DHT22;690;51.454;7.194;2023-01-08T14:16:50;12.10;46.60
1391;DHT22;690;51.454;7.194;2023-01-08T14:19:19;12.10;19.80
1391;DHT22;690;51.454;7.194;2023-01-08T14:21:48;12.10;8.70
1391;DHT22;690;51.454;7.194;2023-01-08T14:24:16;12.10;1.00
1391;DHT22;690;51.454;7.194;2023-01-08T14:26:50;12.10;1.00
1391;DHT22;690;51.454;7.194;2023-01-08T14:29:20;12.10;1.00
1391;DHT22;690;51.454;7.194;2023-01-08T14:31:47;12.10;1.00
1391;DHT22;690;51.454;7.194;2023-01-08T14:34:17;12.10;1.00
1391;DHT22;690;51.454;7.194;2023-01-08T14:36:45;12.10;1.00
1391;DHT22;690;51.454;7.194;2023-01-08T14:39:20;12.10;1.00
1391;DHT22;690;51.454;7.194;2023-01-08T14:41:50;12.10;1.00
1391;DHT22;690;51.454;7.194;2023-01-08T14:44:36;12.20;1.00
1391;DHT22;690;51.454;7.194;2023-01-08T14:47:03;12.20;1.00
1391;DHT22;690;51.454;7.194;2023-01-08T14:49:33;12.20;1.00
1391;DHT22;690;51.454;7.194;2023-01-08T14:52:09;12.20;1.00
1391;DHT22;690;51.454;7.194;2023-01-08T14:54:39;12.20;1.00
1391;DHT22;690;51.454;7.194;2023-01-08T14:57:11;12.20;1.00
1391;DHT22;690;51.454;7.194;2023-01-08T14:59:38;12.20;1.00
1391;DHT22;690;51.454;7.194;2023-01-08T15:02:24;12.10;1.00
1391;DHT22;690;51.454;7.194;2023-01-08T15:05:03;12.10;1.00
1391;DHT22;690;51.454;7.194;2023-01-08T15:07:30;12.00;1.00
1391;DHT22;690;51.454;7.194;2023-01-08T15:09:59;11.90;1.00
1391;DHT22;690;51.454;7.194;2023-01-08T15:12:29;11.90;1.00
1391;DHT22;690;51.454;7.194;2023-01-08T15:15:08;11.90;1.00
1391;DHT22;690;51.454;7.194;2023-01-08T15:17:35;11.90;1.00
1391;DHT22;690;51.454;7.194;2023-01-08T15:20:06;11.80;1.00
1391;DHT22;690;51.454;7.194;2023-01-08T15:22:43;11.80;1.00
1391;DHT22;690;51.454;7.194;2023-01-08T15:25:15;11.80;1.00
1391;DHT22;690;51.454;7.194;2023-01-08T15:27:51;11.80;1.00
1391;DHT22;690;51.454;7.194;2023-01-08T15:30:24;11.70;1.00
1391;DHT22;690;51.454;7.194;2023-01-08T15:32:52;11.70;1.00
1391;DHT22;690;51.454;7.194;2023-01-08T15:35:19;11.70;1.00
1391;DHT22;690;51.454;7.194;2023-01-08T15:37:50;11.60;1.00
1391;DHT22;690;51.454;7.194;2023-01-08T15:40:17;11.60;1.00
1391;DHT22;690;51.454;7.194;2023-01-08T15:42:44;11.50;1.00
1391;DHT22;690;51.454;7.194;2023-01-08T15:45:30;11.50;1.00
1391;DHT22;690;51.454;7.194;2023-01-08T15:47:57;11.60;1.00
1391;DHT22;690;51.454;7.194;2023-01-08T15:50:25;11.50;1.00
1391;DHT22;690;51.454;7.194;2023-01-08T15:52:53;11.50;1.00
1391;DHT22;690;51.454;7.194;2023-01-08T15:55:23;11.50;1.00
1391;DHT22;690;51.454;7.194;2023-01-08T15:57:50;11.50;1.00
1391;DHT22;690;51.454;7.194;2023-01-08T16:00:18;11.60;1.00
1391;DHT22;690;51.454;7.194;2023-01-08T16:02:50;11.60;1.00
1391;DHT22;690;51.454;7.194;2023-01-08T16:05:19;11.60;1.00
1391;DHT22;690;51.454;7.194;2023-01-08T16:07:46;11.60;1.00
1391;DHT22;690;51.454;7.194;2023-01-08T16:10:14;11.60;1.00
1391;DHT22;690;51.454;7.194;2023-01-08T16:12:41;11.70;1.00
1391;DHT22;690;51.454;7.194;2023-01-08T16:15:10;11.60;1.00
1391;DHT22;690;51.454;7.194;2023-01-08T16:17:37;11.70;1.00
1391;DHT22;690;51.454;7.194;2023-01-08T16:20:07;11.70;1.00
1391;DHT22;690;51.454;7.194;2023-01-08T16:22:34;11.70;1.00
1391;DHT22;690;51.454;7.194;2023-01-08T16:25:01;11.70;1.00
1391;DHT22;690;51.454;7.194;2023-01-08T16:27:29;11.70;1.00
1391;DHT22;690;51.454;7.194;2023-01-08T16:29:57;11.70;1.00
1391;DHT22;690;51.454;7.194;2023-01-08T16:32:24;11.70;1.00
1391;DHT22;690;51.454;7.194;2023-01-08T16:34:51;11.80;1.00
1391;DHT22;690;51.454;7.194;2023-01-08T16:37:20;11.80;1.00
1391;DHT22;690;51.454;7.194;2023-01-08T16:39:48;11.80;1.00
1391;DHT22;690;51.454;7.194;2023-01-08T16:42:15;11.80;1.00
1391;DHT22;690;51.454;7.194;2023-01-08T16:44:43;11.80;1.00
1391;DHT22;690;51.454;7.194;2023-01-08T16:47:10;11.80;1.00
1391;DHT22;690;51.454;7.194;2023-01-08T16:49:37;11.80;1.00